Terminal Aerodrome Forecast
Issued by NWS

Home | Current Version | Previous Version | Text Only | Print | Product List | Glossary On
Versions: 1 2 3 4 5 6 7 8 9 10 11 12 13 14 15 16 17 18 19 20 21 22 23 24 25 26 27 28 29 30 31
327
FTUS41 KGYX 230246 AAA
TAFRKD
TAF AMD
KRKD 230246Z 2303/2324 21007G20KT 6SM BR OVC003
     FM230500 20010KT 5SM -SHRA SCT005 BKN045
      TEMPO 2305/2307 2SM SHRA OVC025
     FM231500 25008G16KT P6SM SCT045
      AMD LTD TO CLD VIS AND WIND=

USA.gov is the U.S. government's official web portal to all federal, state and local government web resources and services.